AKDT,Max TemperatureF,Mean TemperatureF,Min TemperatureF,Max Dew PointF,MeanDew PointF,Min DewpointF,Max Humidity, Mean Humidity, Min Humidity, Max Sea Level PressureIn, Mean Sea Level PressureIn, Min Sea Level PressureIn, Max VisibilityMiles, Mean VisibilityMiles, Min VisibilityMiles, Max Wind SpeedMPH, Mean Wind SpeedMPH, Max Gust SpeedMPH,PrecipitationIn, CloudCover, Events, WindDirDegrees
2013-9-1,63,60,59,59,58,57,96,93,90,29.93,29.88,29.86,10,4,2,10,4,,0.31,8,Fog-Rain,189
2013-9-2,68,62,57,58,56,53,96,86,65,29.99,29.94,29.91,10,9,2,13,5,,0.01,5,,314
2013-9-3,64,59,54,56,54,52,97,85,70,29.99,29.97,29.91,10,9,1,12,3,,0.00,4,,266
2013-9-4,62,60,57,58,56,52,100,89,72,30.02,29.94,29.88,10,5,2,15,8,23,1.05,8,Rain,162
2013-9-5,64,60,57,56,56,55,93,87,75,30.21,30.15,30.03,10,10,9,10,6,,0.02,7,Rain,133
2013-9-6,66,62,57,57,55,52,93,83,65,30.20,30.15,30.08,10,10,10,13,6,20,0.01,8,Rain,115
2013-9-7,69,64,61,60,58,56,93,85,70,30.06,29.89,29.69,10,7,2,21,9,33,1.10,8,Rain,170
2013-9-8,62,58,53,59,54,50,93,86,77,30.17,30.02,29.70,10,8,2,26,14,40,0.39,7,Rain,183
2013-9-9,61,56,51,52,50,49,93,84,72,30.17,30.15,30.10,10,9,7,7,3,,0.00,6,,96
2013-9-10,60,56,53,56,53,50,93,88,81,30.09,30.03,29.97,10,9,6,9,3,,0.04,8,Rain,344
2013-9-11,66,60,57,60,57,55,97,89,73,30.05,30.02,30.00,10,8,2,15,5,22,0.03,8,Rain,263
2013-9-12,63,58,53,57,55,50,97,86,67,30.11,30.06,30.01,10,9,2,16,7,,0.02,6,Rain,320
2013-9-13,64,55,48,53,50,47,96,84,67,30.12,30.07,29.97,10,10,10,8,3,,0.00,2,,157
2013-9-14,63,58,52,55,52,50,93,86,72,29.96,29.88,29.80,10,10,10,8,4,,0.00,3,,153
2013-9-15,64,58,52,55,52,50,93,86,75,29.79,29.69,29.57,10,10,8,9,4,,0.01,6,Rain,276
2013-9-16,59,55,52,54,51,48,94,89,80,29.65,29.61,29.58,10,8,1,9,6,,0.51,8,Rain,150
2013-9-17,59,54,51,51,49,47,93,85,72,29.75,29.68,29.63,10,8,2,13,8,22,0.47,7,Rain,105
2013-9-18,59,54,52,51,48,47,89,80,69,29.80,29.75,29.62,10,10,3,10,6,,0.12,8,Rain,99
2013-9-19,62,58,53,52,49,45,86,73,62,29.59,29.22,28.99,10,10,5,20,10,26,0.51,8,Rain,89
2013-9-20,63,58,53,55,53,50,94,85,67,29.37,29.14,28.94,10,7,1,20,14,34,0.82,8,Rain,168
2013-9-21,57,54,51,50,45,42,93,74,59,29.38,29.16,28.87,10,10,9,30,13,44,0.15,8,Rain,123
2013-9-22,57,53,50,52,47,43,94,79,62,29.12,28.93,28.82,10,8,2,21,14,26,0.58,7,Rain,119
2013-9-23,55,54,52,49,46,42,86,77,64,29.63,29.36,29.13,10,10,5,21,13,31,0.13,7,Rain,139
2013-9-24,61,54,48,48,45,42,93,74,53,30.12,29.90,29.65,10,10,10,9,7,,0.00,5,,122
2013-9-25,60,50,43,51,46,42,97,82,65,30.16,30.09,29.97,10,10,4,21,6,25,0.09,4,Rain,161
2013-9-26,55,52,50,51,48,45,93,86,72,29.94,29.80,29.68,10,8,2,14,9,21,0.72,8,Rain,128
2013-9-27,54,52,50,48,46,42,93,84,64,29.68,29.42,28.94,10,8,2,25,10,33,0.81,8,Rain,113
2013-9-28,55,52,46,43,42,38,86,66,57,28.92,28.89,28.85,10,10,10,21,13,30,0.01,5,Rain,114
2013-9-29,61,53,45,49,44,40,90,75,53,29.12,28.98,28.90,10,10,10,10,3,,0.01,5,Rain,63
2013-9-30,57,51,45,50,46,43,96,84,71,29.49,29.31,29.14,10,10,6,7,4,,0.04,4,Rain,138